Terminal Aerodrome Forecast
Issued by NWS Raleigh/Durham, NC

Home | Current Version | Previous Version | Text Only | Print | Product List | Glossary On
Versions: 1 2 3 4 5 6 7 8 9 10 11 12 13 14 15 16 17 18 19 20 21 22 23 24 25 26 27 28 29 30 31 32 33 34 35 36 37 38 39 40 41 42 43 44
000
FTUS42 KRAH 291731
TAFRDU
TAF
KRDU 291731Z 2918/3018 06007KT P6SM BKN025 OVC035
      TEMPO 2920/2922 SCT025
     FM292200 06004KT P6SM SCT030 BKN040
     FM300400 VRB02KT 2SM BR BKN005
     FM301500 17004KT P6SM SCT040 BKN250=

USA.gov is the U.S. government's official web portal to all federal, state and local government web resources and services.